Time;durP1;ratioP1;P1;durP2;ratioP2;P2;SDS_P1;SDS_P2;PMS_P1;PMS_P2;Temp;Humidity;BMP_temperature;BMP_pressure;BME280_temperature;BME280_humidity;BME280_pressure;Samples;Min_cycle;Max_cycle;Signal;HPM_P1;HPM_P2
2021/10/20 00:00:26;;;;;;;3.63;2.13;;;14.00;99.90;;;;;;5033407;28;20021;-48
2021/10/20 00:02:53;;;;;;;3.78;1.98;;;14.00;99.90;;;;;;5033395;28;20051;-48
2021/10/20 00:05:19;;;;;;;3.13;1.80;;;14.00;99.90;;;;;;5033435;28;20029;-47
2021/10/20 00:07:46;;;;;;;3.58;2.20;;;14.00;99.90;;;;;;5032860;28;20081;-47
2021/10/20 00:10:13;;;;;;;2.53;2.10;;;13.90;99.90;;;;;;5031898;28;20026;-46
2021/10/20 00:12:39;;;;;;;4.43;2.20;;;13.90;99.90;;;;;;5033189;28;20341;-48
2021/10/20 00:15:08;;;;;;;4.13;2.83;;;13.80;99.90;;;;;;5033192;28;20026;-50
2021/10/20 00:17:34;;;;;;;4.75;1.92;;;13.80;99.90;;;;;;5033237;28;20021;-48
2021/10/20 00:20:06;;;;;;;3.00;2.40;;;13.70;99.90;;;;;;5033118;28;20437;-47
2021/10/20 00:22:33;;;;;;;3.55;2.92;;;13.70;99.90;;;;;;5033161;28;20105;-52
2021/10/20 00:24:58;;;;;;;3.53;2.80;;;13.60;99.90;;;;;;5031796;28;20038;-47
2021/10/20 00:27:24;;;;;;;3.13;2.80;;;13.60;99.90;;;;;;5032915;28;20366;-47
2021/10/20 00:29:50;;;;;;;3.38;2.65;;;13.40;99.90;;;;;;5032980;28;20033;-47
2021/10/20 00:32:15;;;;;;;4.03;2.72;;;13.40;99.90;;;;;;5032858;28;20056;-48
2021/10/20 00:34:41;;;;;;;2.90;2.00;;;13.40;99.90;;;;;;5032951;28;20029;-47
2021/10/20 00:37:06;;;;;;;2.78;2.08;;;13.30;99.90;;;;;;5032863;28;20029;-50
2021/10/20 00:39:32;;;;;;;4.22;2.70;;;13.30;99.90;;;;;;5031632;28;20068;-46
2021/10/20 00:41:57;;;;;;;4.20;2.42;;;13.30;99.90;;;;;;5032762;28;20045;-47
2021/10/20 00:44:23;;;;;;;4.88;3.33;;;13.30;99.90;;;;;;5031627;28;20026;-49
2021/10/20 00:46:49;;;;;;;4.82;2.55;;;13.40;99.90;;;;;;5032890;28;20036;-49
2021/10/20 00:49:15;;;;;;;5.07;2.92;;;13.30;99.90;;;;;;5032998;28;20026;-47
2021/10/20 00:51:41;;;;;;;3.92;2.88;;;13.30;99.90;;;;;;5032742;28;20350;-44
2021/10/20 00:54:06;;;;;;;3.80;3.00;;;13.20;99.90;;;;;;5031461;28;20468;-47
2021/10/20 00:56:32;;;;;;;3.83;3.13;;;13.20;99.90;;;;;;5032648;28;20036;-50
2021/10/20 00:58:58;;;;;;;4.57;3.40;;;13.10;99.90;;;;;;5032730;28;20029;-49
2021/10/20 01:01:23;;;;;;;4.65;3.20;;;13.10;99.90;;;;;;5032725;28;20060;-49
2021/10/20 01:03:49;;;;;;;4.95;3.30;;;13.00;99.90;;;;;;5032670;28;20468;-48
2021/10/20 01:06:16;;;;;;;4.72;3.05;;;13.00;99.90;;;;;;5032615;28;20088;-49
2021/10/20 01:08:41;;;;;;;3.85;3.03;;;13.00;99.90;;;;;;5031244;28;20322;-48
2021/10/20 01:11:07;;;;;;;5.00;3.53;;;12.90;99.90;;;;;;5032381;28;20025;-46
2021/10/20 01:13:33;;;;;;;3.22;2.58;;;12.90;99.90;;;;;;5032572;28;20025;-48
2021/10/20 01:15:59;;;;;;;4.72;3.10;;;12.90;99.90;;;;;;5032517;28;20050;-46
2021/10/20 01:18:25;;;;;;;4.60;3.08;;;12.90;99.90;;;;;;5032579;28;20029;-50
2021/10/20 01:20:51;;;;;;;6.28;3.60;;;12.80;99.90;;;;;;5032507;28;20303;-48
2021/10/20 01:23:21;;;;;;;5.47;3.88;;;12.90;99.90;;;;;;5032502;28;20051;-47
2021/10/20 01:25:46;;;;;;;4.82;3.70;;;12.90;99.90;;;;;;5031115;28;20032;-45
2021/10/20 01:28:12;;;;;;;6.78;4.00;;;12.90;99.90;;;;;;5032370;28;20037;-48
2021/10/20 01:30:38;;;;;;;4.97;3.85;;;12.90;99.90;;;;;;5032379;28;20030;-51
2021/10/20 01:33:03;;;;;;;7.57;4.90;;;12.90;99.90;;;;;;5035372;28;20025;-48
2021/10/20 01:35:29;;;;;;;9.18;5.53;;;12.90;99.90;;;;;;5036170;28;20029;-46
2021/10/20 01:38:00;;;;;;;6.38;4.90;;;13.00;99.90;;;;;;5036408;28;20422;-46
2021/10/20 01:40:26;;;;;;;8.98;5.75;;;12.90;99.90;;;;;;5034651;28;20025;-49
2021/10/20 01:42:51;;;;;;;7.53;5.20;;;12.90;99.90;;;;;;5036076;28;20025;-47
2021/10/20 01:45:17;;;;;;;8.98;5.93;;;12.90;99.90;;;;;;5035982;28;20025;-53
2021/10/20 01:47:43;;;;;;;8.43;5.40;;;12.90;99.90;;;;;;5035989;28;20469;-47
2021/10/20 01:50:14;;;;;;;8.65;6.00;;;12.90;99.90;;;;;;5035890;28;20017;-50
2021/10/20 01:52:40;;;;;;;9.05;6.82;;;12.80;99.90;;;;;;5035795;28;20067;-47
2021/10/20 01:55:13;;;;;;;9.50;6.57;;;12.90;99.90;;;;;;5034460;28;20025;-46
2021/10/20 01:57:39;;;;;;;9.55;6.32;;;12.90;99.90;;;;;;5035779;28;20075;-45
2021/10/20 02:00:06;;;;;;;13.23;7.25;;;12.80;99.90;;;;;;5035706;28;20049;-49
2021/10/20 02:02:31;;;;;;;10.85;6.88;;;12.80;99.90;;;;;;5035654;28;20025;-51
2021/10/20 02:04:57;;;;;;;8.80;5.90;;;12.80;99.90;;;;;;5035595;28;20032;-47
2021/10/20 02:07:22;;;;;;;9.18;6.80;;;12.80;99.90;;;;;;5035275;28;20050;-51
2021/10/20 02:09:48;;;;;;;9.07;6.70;;;12.80;99.90;;;;;;5034307;28;20488;-49
2021/10/20 02:12:13;;;;;;;9.73;6.30;;;12.70;99.90;;;;;;5035438;28;20108;-45
2021/10/20 02:14:39;;;;;;;10.60;6.80;;;12.70;99.90;;;;;;5035524;28;20481;-47
2021/10/20 02:17:05;;;;;;;10.15;6.45;;;12.80;99.90;;;;;;5035433;28;20033;-47
2021/10/20 02:19:31;;;;;;;10.35;6.75;;;12.70;99.90;;;;;;5035414;28;20032;-48
2021/10/20 02:21:58;;;;;;;11.40;7.70;;;12.70;99.90;;;;;;5035333;28;20029;-47
2021/10/20 02:24:23;;;;;;;9.23;6.95;;;12.70;99.90;;;;;;5034008;28;20037;-47
2021/10/20 02:26:49;;;;;;;12.13;7.28;;;12.80;99.90;;;;;;5035233;28;20041;-46
2021/10/20 02:29:14;;;;;;;9.20;6.85;;;12.80;99.90;;;;;;5035180;28;20116;-47
2021/10/20 02:31:46;;;;;;;10.63;7.00;;;12.80;99.90;;;;;;5035087;28;20499;-46
2021/10/20 02:34:15;;;;;;;9.70;6.68;;;12.80;99.90;;;;;;5035086;28;20014;-45
2021/10/20 02:36:41;;;;;;;9.13;6.22;;;12.70;99.90;;;;;;5034838;28;20096;-49
2021/10/20 02:39:08;;;;;;;9.35;6.68;;;12.70;99.90;;;;;;5033722;28;20041;-52
2021/10/20 02:41:34;;;;;;;9.73;6.97;;;12.70;99.90;;;;;;5035129;28;20048;-50
2021/10/20 02:44:00;;;;;;;10.30;7.88;;;12.70;99.90;;;;;;5033786;28;20064;-44
2021/10/20 02:46:26;;;;;;;8.48;6.22;;;12.70;99.90;;;;;;5034870;28;20073;-48
2021/10/20 02:48:51;;;;;;;10.60;7.15;;;12.70;99.90;;;;;;5034861;28;20433;-52
2021/10/20 02:51:17;;;;;;;8.85;6.68;;;12.70;99.90;;;;;;5034640;28;20021;-49
2021/10/20 02:53:42;;;;;;;8.93;7.05;;;12.60;99.90;;;;;;5033536;28;20316;-47
2021/10/20 02:56:08;;;;;;;8.00;5.95;;;12.60;99.90;;;;;;5034655;28;20037;-49
2021/10/20 02:58:33;;;;;;;8.88;6.30;;;12.60;99.90;;;;;;5034605;28;20052;-49
2021/10/20 03:00:59;;;;;;;14.75;8.85;;;12.60;99.90;;;;;;5034611;28;20465;-46
2021/10/20 03:03:24;;;;;;;10.43;7.68;;;12.60;99.90;;;;;;5034551;28;20045;-45
2021/10/20 03:05:50;;;;;;;10.85;7.80;;;12.60;99.90;;;;;;5034418;28;20049;-44
2021/10/20 03:08:15;;;;;;;11.63;7.53;;;12.60;99.90;;;;;;5034284;28;20068;-45
2021/10/20 03:10:41;;;;;;;10.07;6.72;;;12.60;99.90;;;;;;5033033;28;20048;-50
2021/10/20 03:13:07;;;;;;;13.13;7.63;;;12.60;99.90;;;;;;5034350;28;20041;-45
2021/10/20 03:15:33;;;;;;;10.55;8.13;;;12.60;99.90;;;;;;5034349;28;20030;-46
2021/10/20 03:17:59;;;;;;;10.50;7.97;;;12.60;99.90;;;;;;5034254;28;20388;-46
2021/10/20 03:20:25;;;;;;;9.23;8.00;;;12.60;99.90;;;;;;5034089;28;20029;-48
2021/10/20 03:22:50;;;;;;;9.25;7.05;;;12.60;99.90;;;;;;5034214;28;20326;-50
2021/10/20 03:25:16;;;;;;;9.32;7.78;;;12.60;99.90;;;;;;5032785;28;20090;-48
2021/10/20 03:27:43;;;;;;;9.43;7.20;;;12.60;99.90;;;;;;5034048;28;20108;-47
2021/10/20 03:30:11;;;;;;;10.57;7.60;;;12.50;99.90;;;;;;5034027;28;20013;-45
2021/10/20 03:32:36;;;;;;;9.25;6.70;;;12.50;99.90;;;;;;5033866;28;20527;-51
2021/10/20 03:35:02;;;;;;;7.80;6.22;;;12.50;99.90;;;;;;5033791;28;20030;-46
2021/10/20 03:37:28;;;;;;;10.63;6.90;;;12.40;99.90;;;;;;5033885;28;20048;-46
2021/10/20 03:39:53;;;;;;;8.63;6.32;;;12.40;99.90;;;;;;5032627;28;20576;-46
2021/10/20 03:42:19;;;;;;;8.55;6.45;;;12.40;99.90;;;;;;5033732;28;20040;-48
2021/10/20 03:44:45;;;;;;;9.98;7.22;;;12.40;99.90;;;;;;5033822;28;20025;-47
2021/10/20 03:47:10;;;;;;;10.15;7.03;;;12.40;99.90;;;;;;5033682;28;20048;-52
2021/10/20 03:49:36;;;;;;;10.32;7.25;;;12.30;99.90;;;;;;5033557;28;20033;-48
2021/10/20 03:52:01;;;;;;;8.65;6.80;;;12.40;99.90;;;;;;5033588;28;20381;-46
2021/10/20 03:54:27;;;;;;;9.80;7.03;;;12.30;99.90;;;;;;5031962;28;20465;-49
2021/10/20 03:56:52;;;;;;;11.48;7.07;;;12.30;99.90;;;;;;5033815;28;20071;-47
2021/10/20 03:59:18;;;;;;;11.40;6.47;;;12.30;99.90;;;;;;5033432;28;20034;-48
2021/10/20 04:01:43;;;;;;;12.40;7.18;;;12.30;99.90;;;;;;5033498;28;20117;-46
2021/10/20 04:04:09;;;;;;;7.20;5.80;;;12.30;99.90;;;;;;5033371;28;20033;-48
2021/10/20 04:06:35;;;;;;;8.60;6.70;;;12.30;99.90;;;;;;5033312;28;20064;-46
2021/10/20 04:09:00;;;;;;;8.07;6.30;;;12.30;99.90;;;;;;5031842;28;20049;-46
2021/10/20 04:11:26;;;;;;;9.20;7.15;;;12.30;99.90;;;;;;5033205;28;20061;-46
2021/10/20 04:13:51;;;;;;;10.00;6.53;;;12.30;99.90;;;;;;5033310;28;20433;-46
2021/10/20 04:16:17;;;;;;;10.48;6.97;;;12.30;99.90;;;;;;5033172;28;20021;-46
2021/10/20 04:18:42;;;;;;;9.73;7.00;;;12.30;99.90;;;;;;5033134;28;20056;-46
2021/10/20 04:21:07;;;;;;;8.77;5.97;;;12.30;99.90;;;;;;5033162;28;20109;-47
2021/10/20 04:23:33;;;;;;;9.32;6.80;;;12.30;99.90;;;;;;5031749;28;20030;-45
2021/10/20 04:25:58;;;;;;;12.93;7.28;;;12.30;99.90;;;;;;5033115;28;20030;-48
2021/10/20 04:28:24;;;;;;;12.82;7.70;;;12.30;99.90;;;;;;5033236;28;20082;-46
2021/10/20 04:30:49;;;;;;;9.75;5.97;;;12.30;99.90;;;;;;5032941;28;20108;-49
2021/10/20 04:33:15;;;;;;;11.45;6.70;;;12.30;99.90;;;;;;5033010;28;20484;-50
2021/10/20 04:35:40;;;;;;;10.45;6.82;;;12.30;99.90;;;;;;5032855;28;20053;-48
2021/10/20 04:38:06;;;;;;;7.53;6.22;;;12.30;99.90;;;;;;5033026;28;20070;-45
2021/10/20 04:40:31;;;;;;;7.70;5.90;;;12.30;99.90;;;;;;5031621;28;20300;-47
2021/10/20 04:42:57;;;;;;;8.13;6.18;;;12.30;99.90;;;;;;5032895;28;20032;-48
2021/10/20 04:45:22;;;;;;;8.57;6.32;;;12.30;99.90;;;;;;5032804;28;20362;-47
2021/10/20 04:47:48;;;;;;;9.43;6.32;;;12.30;99.90;;;;;;5032833;28;20048;-46
2021/10/20 04:50:14;;;;;;;9.25;6.75;;;12.30;99.90;;;;;;5032689;28;20021;-50
2021/10/20 04:52:39;;;;;;;6.70;5.72;;;12.30;99.90;;;;;;5032655;28;20025;-45
2021/10/20 04:55:06;;;;;;;7.88;5.95;;;12.30;99.90;;;;;;5031474;28;20036;-47
2021/10/20 04:57:32;;;;;;;11.82;6.90;;;12.30;99.90;;;;;;5032697;28;20018;-49
2021/10/20 04:59:58;;;;;;;7.75;5.80;;;12.30;99.90;;;;;;5032712;28;20033;-47
2021/10/20 05:02:23;;;;;;;8.00;6.03;;;12.30;99.90;;;;;;5032630;28;20157;-46
2021/10/20 05:04:49;;;;;;;8.18;6.47;;;12.40;99.90;;;;;;5032530;28;20472;-46
2021/10/20 05:07:15;;;;;;;9.52;6.43;;;12.40;99.90;;;;;;5034465;28;20224;-49
2021/10/20 05:09:41;;;;;;;6.43;5.55;;;12.40;99.90;;;;;;5035442;28;20021;-49
2021/10/20 05:12:07;;;;;;;10.60;6.85;;;12.40;99.90;;;;;;5036678;28;20033;-49
2021/10/20 05:14:32;;;;;;;8.38;5.85;;;12.40;99.90;;;;;;5036571;28;20025;-47
2021/10/20 05:16:58;;;;;;;8.50;6.40;;;12.40;99.90;;;;;;5036616;28;20495;-47
2021/10/20 05:19:23;;;;;;;7.72;5.60;;;12.40;99.90;;;;;;5036351;28;20033;-46
2021/10/20 05:21:49;;;;;;;8.23;6.03;;;12.40;99.90;;;;;;5036677;28;20041;-49
2021/10/20 05:24:14;;;;;;;6.88;5.60;;;12.40;99.90;;;;;;5035177;28;20137;-46
2021/10/20 05:26:40;;;;;;;6.68;5.22;;;12.40;99.90;;;;;;5036348;28;20065;-47
2021/10/20 05:29:06;;;;;;;6.97;5.13;;;12.40;99.90;;;;;;5036378;28;20029;-51
2021/10/20 05:31:32;;;;;;;10.05;6.00;;;12.30;99.90;;;;;;5036181;28;20040;-47
2021/10/20 05:33:58;;;;;;;5.78;4.82;;;12.30;99.90;;;;;;5036203;28;20075;-49
2021/10/20 05:36:23;;;;;;;9.80;5.85;;;12.30;99.90;;;;;;5036197;28;20022;-47
2021/10/20 05:38:49;;;;;;;7.20;5.10;;;12.30;99.90;;;;;;5034860;28;20100;-51
2021/10/20 05:41:15;;;;;;;8.10;5.35;;;12.30;99.90;;;;;;5036095;28;20038;-48
2021/10/20 05:43:42;;;;;;;5.68;4.47;;;12.30;99.90;;;;;;5036049;28;20030;-49
2021/10/20 05:46:08;;;;;;;6.70;5.30;;;12.30;99.90;;;;;;5036121;28;20030;-49
2021/10/20 05:48:33;;;;;;;6.68;4.95;;;12.30;99.90;;;;;;5035854;28;20540;-49
2021/10/20 05:50:59;;;;;;;9.35;5.20;;;12.30;99.90;;;;;;5035909;28;20029;-51
2021/10/20 05:53:24;;;;;;;10.35;5.07;;;12.30;99.90;;;;;;5034631;28;20049;-48
2021/10/20 05:55:50;;;;;;;8.00;4.78;;;12.40;99.90;;;;;;5035851;28;20500;-47
2021/10/20 05:58:15;;;;;;;10.02;5.20;;;12.40;99.90;;;;;;5035834;28;20096;-48
2021/10/20 06:00:41;;;;;;;5.53;4.97;;;12.50;99.90;;;;;;5035712;28;20503;-46
2021/10/20 06:03:07;;;;;;;6.00;5.00;;;12.50;99.90;;;;;;5035706;28;20056;-49
2021/10/20 06:05:33;;;;;;;6.95;4.15;;;12.50;99.90;;;;;;5035610;28;20017;-47
2021/10/20 06:07:58;;;;;;;5.90;3.90;;;12.50;99.90;;;;;;5035500;28;20501;-48
2021/10/20 06:10:24;;;;;;;4.72;4.05;;;12.60;99.90;;;;;;5034247;28;20393;-48
2021/10/20 06:12:51;;;;;;;5.15;3.53;;;12.60;99.90;;;;;;5035496;28;20072;-48
2021/10/20 06:15:21;;;;;;;4.80;3.80;;;12.60;99.90;;;;;;5035472;28;20535;-47
2021/10/20 06:17:47;;;;;;;4.88;3.83;;;12.70;99.90;;;;;;5035113;28;20041;-50
2021/10/20 06:20:13;;;;;;;6.70;4.20;;;12.70;99.90;;;;;;5035433;28;20053;-49
2021/10/20 06:22:41;;;;;;;4.75;3.30;;;12.80;99.90;;;;;;5035346;28;20073;-47
2021/10/20 06:25:08;;;;;;;4.28;3.20;;;12.80;99.90;;;;;;5033997;28;20586;-48
2021/10/20 06:27:33;;;;;;;6.72;3.22;;;12.80;99.90;;;;;;5035260;28;20029;-48
2021/10/20 06:29:58;;;;;;;7.60;4.32;;;12.90;99.90;;;;;;5035190;28;20029;-47
2021/10/20 06:32:24;;;;;;;3.92;3.47;;;12.90;99.90;;;;;;5035002;28;20025;-46
2021/10/20 06:34:50;;;;;;;6.05;3.55;;;13.00;99.90;;;;;;5035081;28;20072;-46
2021/10/20 06:37:15;;;;;;;6.32;3.42;;;13.10;99.90;;;;;;5035126;28;20385;-48
2021/10/20 06:39:40;;;;;;;4.85;3.33;;;13.20;99.90;;;;;;5033713;28;20060;-47
2021/10/20 06:42:06;;;;;;;4.45;3.40;;;13.30;99.90;;;;;;5035163;28;20376;-48
2021/10/20 06:44:31;;;;;;;7.93;4.07;;;13.40;99.90;;;;;;5034932;28;20048;-49
2021/10/20 06:46:57;;;;;;;4.82;3.60;;;13.40;99.90;;;;;;5034866;28;20498;-48
2021/10/20 06:49:22;;;;;;;5.25;3.28;;;13.60;99.90;;;;;;5034915;28;20079;-46
2021/10/20 06:51:48;;;;;;;3.53;2.80;;;13.60;99.90;;;;;;5034763;28;20041;-46
2021/10/20 06:54:20;;;;;;;4.28;3.35;;;13.70;99.90;;;;;;5033542;28;20349;-44
2021/10/20 06:56:50;;;;;;;4.20;3.10;;;13.80;99.90;;;;;;5034678;28;20024;-45
2021/10/20 06:59:15;;;;;;;4.15;3.10;;;13.90;99.90;;;;;;5034746;28;20029;-45
2021/10/20 07:01:41;;;;;;;5.68;3.17;;;14.00;99.90;;;;;;5034507;28;20476;-46
2021/10/20 07:04:08;;;;;;;4.38;3.40;;;14.10;99.90;;;;;;5034723;28;20048;-47
2021/10/20 07:06:34;;;;;;;5.30;3.08;;;14.20;99.90;;;;;;5034518;28;20033;-47
2021/10/20 07:09:00;;;;;;;3.85;3.22;;;14.30;99.90;;;;;;5033125;28;20128;-45
2021/10/20 07:11:25;;;;;;;7.38;3.40;;;14.30;99.90;;;;;;5034446;28;20109;-47
2021/10/20 07:13:51;;;;;;;2.97;2.53;;;14.30;99.90;;;;;;5034431;28;20033;-49
2021/10/20 07:16:17;;;;;;;3.80;2.58;;;14.40;99.90;;;;;;5034290;28;20036;-46
2021/10/20 07:18:42;;;;;;;4.50;2.90;;;14.40;99.90;;;;;;5034312;28;20018;-49
2021/10/20 07:21:08;;;;;;;4.13;2.80;;;14.40;99.90;;;;;;5034278;28;20377;-47
2021/10/20 07:23:34;;;;;;;4.68;2.95;;;14.50;99.90;;;;;;5033011;28;20321;-48
2021/10/20 07:25:59;;;;;;;3.63;2.88;;;14.50;99.90;;;;;;5034220;28;20419;-48
2021/10/20 07:28:25;;;;;;;3.63;2.50;;;14.60;99.90;;;;;;5034170;28;20501;-51
2021/10/20 07:30:50;;;;;;;4.47;2.83;;;14.60;99.90;;;;;;5033326;28;20033;-50
2021/10/20 07:33:17;;;;;;;4.50;2.72;;;14.70;99.90;;;;;;5034063;28;20057;-50
2021/10/20 07:35:42;;;;;;;4.05;2.95;;;14.80;99.90;;;;;;5034001;28;20029;-48
2021/10/20 07:38:08;;;;;;;6.10;3.20;;;14.80;99.90;;;;;;5033992;28;20022;-48
2021/10/20 07:40:33;;;;;;;2.55;2.20;;;14.90;99.90;;;;;;5032609;28;20029;-48
2021/10/20 07:42:59;;;;;;;4.97;2.80;;;15.00;99.90;;;;;;5033810;28;20045;-47
2021/10/20 07:45:25;;;;;;;3.20;2.63;;;15.10;99.90;;;;;;5033702;28;20060;-47
2021/10/20 07:47:51;;;;;;;5.03;3.47;;;15.20;99.90;;;;;;5033708;28;20021;-48
2021/10/20 07:50:18;;;;;;;2.65;2.33;;;15.30;99.90;;;;;;5033673;28;20048;-47
2021/10/20 07:52:48;;;;;;;3.88;2.60;;;15.40;99.90;;;;;;5033545;28;20059;-49
2021/10/20 07:55:15;;;;;;;4.75;2.75;;;15.60;99.90;;;;;;5032381;28;20416;-47
2021/10/20 07:57:40;;;;;;;3.55;2.50;;;16.00;99.90;;;;;;5033550;28;20049;-48
2021/10/20 08:00:08;;;;;;;2.33;1.95;;;16.30;99.90;;;;;;5033315;28;20072;-49
2021/10/20 08:02:34;;;;;;;3.60;2.25;;;16.70;99.90;;;;;;5033508;28;20040;-51
2021/10/20 08:04:59;;;;;;;3.63;2.53;;;16.90;99.90;;;;;;5033463;28;20108;-47
2021/10/20 08:07:25;;;;;;;4.80;2.65;;;17.00;99.90;;;;;;5033277;28;20073;-53
2021/10/20 08:09:51;;;;;;;2.50;2.22;;;17.00;99.90;;;;;;5032103;28;20037;-47
2021/10/20 08:12:19;;;;;;;4.10;2.47;;;17.10;99.90;;;;;;5033320;28;20036;-51
2021/10/20 08:14:45;;;;;;;2.75;2.13;;;17.10;99.90;;;;;;5033257;28;20017;-45
2021/10/20 08:17:10;;;;;;;4.05;2.10;;;17.20;99.90;;;;;;5033306;28;20025;-49
2021/10/20 08:19:36;;;;;;;4.57;2.40;;;17.10;99.90;;;;;;5033310;28;20079;-50
2021/10/20 08:22:02;;;;;;;3.83;2.53;;;17.10;99.90;;;;;;5033209;28;20029;-50
2021/10/20 08:24:28;;;;;;;2.92;2.22;;;17.10;99.90;;;;;;5031972;28;20524;-45
2021/10/20 08:26:54;;;;;;;2.80;2.30;;;17.00;99.90;;;;;;5033088;28;20029;-52
2021/10/20 08:29:19;;;;;;;2.25;1.95;;;17.00;99.90;;;;;;5033034;28;20112;-50
2021/10/20 08:31:45;;;;;;;4.80;2.40;;;17.20;99.90;;;;;;5032898;28;20033;-50
2021/10/20 08:34:10;;;;;;;3.40;1.70;;;17.30;99.90;;;;;;5033062;28;20136;-48
2021/10/20 08:36:36;;;;;;;2.20;2.00;;;17.40;99.90;;;;;;5033043;28;20028;-48
2021/10/20 08:39:03;;;;;;;3.05;2.35;;;17.30;99.90;;;;;;5031642;28;20373;-50
2021/10/20 08:41:29;;;;;;;3.72;2.25;;;17.30;99.90;;;;;;5032005;28;20427;-47
2021/10/20 08:43:57;;;;;;;3.20;2.17;;;17.20;99.90;;;;;;5032709;28;20057;-47
2021/10/20 08:46:25;;;;;;;3.15;2.30;;;17.30;99.90;;;;;;5032920;28;20420;-48
2021/10/20 08:48:53;;;;;;;3.42;2.10;;;17.40;99.90;;;;;;5032780;28;20061;-48
2021/10/20 08:51:19;;;;;;;4.47;2.20;;;17.50;99.90;;;;;;5032794;28;20084;-48
2021/10/20 08:53:44;;;;;;;2.78;2.20;;;17.70;99.90;;;;;;5031536;28;20064;-48
2021/10/20 08:56:14;;;;;;;2.83;2.15;;;17.80;99.90;;;;;;5032708;28;20057;-49
2021/10/20 08:58:39;;;;;;;5.10;2.67;;;17.80;99.90;;;;;;5032761;28;20024;-50
2021/10/20 09:01:05;;;;;;;2.90;2.50;;;17.80;97.90;;;;;;5032639;28;20029;-51
2021/10/20 09:03:30;;;;;;;5.00;2.95;;;17.80;99.90;;;;;;5032686;28;20022;-45
2021/10/20 09:05:57;;;;;;;4.45;2.58;;;17.80;97.20;;;;;;5032667;28;20042;-53
2021/10/20 09:08:23;;;;;;;3.15;2.20;;;17.90;97.60;;;;;;5031176;28;20094;-51
2021/10/20 09:10:48;;;;;;;2.88;2.33;;;17.80;98.30;;;;;;5032390;28;20490;-49
2021/10/20 09:13:14;;;;;;;4.40;2.40;;;17.80;96.50;;;;;;5032620;28;20018;-50
2021/10/20 09:15:41;;;;;;;3.63;2.08;;;17.80;98.80;;;;;;5032535;28;20112;-50
2021/10/20 09:18:11;;;;;;;2.92;2.05;;;17.90;98.90;;;;;;5032495;28;20097;-45
2021/10/20 09:20:37;;;;;;;3.92;2.15;;;17.90;98.70;;;;;;5032530;28;20021;-46
2021/10/20 09:23:06;;;;;;;3.67;2.47;;;17.80;98.60;;;;;;5032477;28;20028;-48
2021/10/20 09:25:56;;;;;;;2.42;1.80;;;17.70;98.30;;;;;;5031210;28;20029;-47
2021/10/20 09:28:27;;;;;;;2.60;2.03;;;17.70;96.80;;;;;;5032564;28;20018;-48
2021/10/20 09:30:57;;;;;;;2.55;1.95;;;17.60;99.00;;;;;;5032280;28;20033;-48
2021/10/20 09:33:24;;;;;;;5.35;2.30;;;17.60;99.00;;;;;;5032454;28;20232;-52
2021/10/20 09:35:49;;;;;;;2.55;2.00;;;17.60;96.20;;;;;;5032385;28;20076;-49
2021/10/20 09:38:15;;;;;;;2.40;2.08;;;17.70;98.40;;;;;;5031499;28;20616;-53
2021/10/20 09:40:43;;;;;;;2.53;2.22;;;17.70;97.40;;;;;;5032301;28;20033;-46
2021/10/20 09:43:11;;;;;;;2.67;2.25;;;17.70;98.10;;;;;;5032334;28;20033;-47
2021/10/20 09:45:42;;;;;;;3.78;2.30;;;17.50;97.80;;;;;;5032410;28;20029;-49
2021/10/20 09:48:18;;;;;;;3.28;2.03;;;17.30;99.50;;;;;;5032321;28;20030;-50
2021/10/20 09:50:55;;;;;;;3.60;2.70;;;17.10;99.90;;;;;;5032195;28;20056;-50
2021/10/20 09:53:21;;;;;;;4.78;2.47;;;16.90;99.90;;;;;;5032764;28;20100;-47
2021/10/20 09:55:46;;;;;;;4.68;2.35;;;16.70;99.90;;;;;;5034690;28;20443;-47
2021/10/20 09:58:14;;;;;;;4.00;2.38;;;16.60;99.90;;;;;;5035842;28;20109;-53
2021/10/20 10:00:40;;;;;;;3.47;2.63;;;16.50;99.90;;;;;;5035857;28;20021;-50
2021/10/20 10:03:06;;;;;;;4.07;2.88;;;16.50;99.90;;;;;;5035720;28;20440;-49
2021/10/20 10:05:32;;;;;;;4.85;2.70;;;16.40;99.90;;;;;;5035807;28;20060;-51
2021/10/20 10:07:58;;;;;;;5.82;2.45;;;16.30;99.90;;;;;;5035589;28;20378;-51
2021/10/20 10:10:24;;;;;;;2.53;2.33;;;16.20;99.90;;;;;;5034348;28;20036;-49
2021/10/20 10:12:57;;;;;;;2.60;2.13;;;16.10;99.90;;;;;;5035514;28;20385;-49
2021/10/20 10:15:24;;;;;;;3.28;2.38;;;16.00;99.90;;;;;;5035611;28;20036;-47
2021/10/20 10:17:53;;;;;;;4.22;2.42;;;15.90;99.90;;;;;;5035401;28;20017;-48
2021/10/20 10:20:19;;;;;;;5.45;2.55;;;15.80;99.90;;;;;;5035438;28;20487;-48
2021/10/20 10:22:51;;;;;;;2.97;2.30;;;15.80;99.90;;;;;;5035447;28;20033;-49
2021/10/20 10:25:30;;;;;;;3.80;2.10;;;15.70;99.90;;;;;;5034095;28;20029;-47
2021/10/20 10:28:24;;;;;;;3.25;2.33;;;15.60;99.90;;;;;;5035306;28;20029;-50
2021/10/20 10:30:51;;;;;;;2.88;2.13;;;15.50;99.90;;;;;;5033631;28;20044;-48
2021/10/20 10:33:21;;;;;;;7.63;2.67;;;15.30;99.90;;;;;;5035239;28;20047;-48
2021/10/20 10:36:19;;;;;;;5.13;2.78;;;15.30;99.90;;;;;;5035184;28;20029;-47
2021/10/20 10:38:47;;;;;;;4.45;2.90;;;15.00;99.90;;;;;;5033797;28;20086;-47
2021/10/20 10:41:23;;;;;;;4.43;3.25;;;15.00;99.90;;;;;;5034993;28;20033;-48
2021/10/20 10:44:10;;;;;;;7.15;3.30;;;15.00;99.90;;;;;;5035053;28;20033;-49
2021/10/20 10:47:03;;;;;;;5.57;3.10;;;14.90;99.90;;;;;;5035037;28;20104;-48
2021/10/20 10:49:38;;;;;;;4.30;3.25;;;14.90;99.90;;;;;;5029933;28;20041;-50
2021/10/20 10:52:26;;;;;;;4.32;2.75;;;14.90;99.90;;;;;;5034962;28;20109;-51
2021/10/20 10:54:55;;;;;;;3.80;3.05;;;14.80;99.90;;;;;;5033589;28;20034;-47
2021/10/20 10:57:21;;;;;;;5.00;3.17;;;14.90;99.90;;;;;;5034645;28;20056;-49
2021/10/20 10:59:52;;;;;;;6.47;3.38;;;15.00;99.90;;;;;;5034720;28;20045;-47
2021/10/20 11:02:39;;;;;;;6.03;2.92;;;15.00;99.90;;;;;;5034611;28;20528;-51
2021/10/20 11:05:05;;;;;;;;;;;15.10;99.90;;;;;;5033968;28;20037;-50
2021/10/20 11:07:32;;;;;;;5.22;2.97;;;15.20;99.90;;;;;;5034511;28;19960;-47
2021/10/20 11:09:58;;;;;;;6.57;3.30;;;15.40;99.90;;;;;;5033079;28;20041;-50
2021/10/20 11:12:24;;;;;;;6.88;3.17;;;15.50;99.90;;;;;;5034447;28;20037;-48
2021/10/20 11:14:53;;;;;;;4.07;2.88;;;15.70;99.90;;;;;;5034468;28;20031;-47
2021/10/20 11:17:19;;;;;;;5.30;3.30;;;15.90;99.90;;;;;;5034362;28;20104;-49
2021/10/20 11:19:44;;;;;;;6.43;3.38;;;16.10;99.90;;;;;;5034497;28;20105;-51
2021/10/20 11:22:10;;;;;;;5.50;3.25;;;16.20;99.90;;;;;;5034257;28;20531;-49
2021/10/20 11:24:43;;;;;;;7.65;3.00;;;16.30;99.90;;;;;;5032954;28;20033;-45
2021/10/20 11:27:09;;;;;;;7.13;2.75;;;16.30;99.90;;;;;;5034169;28;20029;-49
2021/10/20 11:29:43;;;;;;;3.25;2.53;;;16.40;99.90;;;;;;5034216;28;20033;-52
2021/10/20 11:32:16;;;;;;;4.63;2.97;;;16.40;99.90;;;;;;5034060;28;20210;-51
2021/10/20 11:34:46;;;;;;;5.13;2.92;;;16.30;99.90;;;;;;5034091;28;20037;-46
2021/10/20 11:37:14;;;;;;;4.93;2.90;;;16.20;99.90;;;;;;5033975;28;20022;-51
2021/10/20 11:39:42;;;;;;;5.13;2.90;;;16.20;99.90;;;;;;5032758;28;20021;-49
2021/10/20 11:42:12;;;;;;;4.25;3.10;;;16.10;99.90;;;;;;5033892;28;20028;-48
2021/10/20 11:44:40;;;;;;;3.17;2.47;;;16.10;99.90;;;;;;5033938;28;20026;-46
2021/10/20 11:47:15;;;;;;;3.67;2.60;;;16.00;99.90;;;;;;5033778;28;20041;-47
2021/10/20 11:49:52;;;;;;;4.30;2.70;;;16.10;99.90;;;;;;5033749;28;20021;-50
2021/10/20 11:52:20;;;;;;;4.65;2.53;;;16.00;99.90;;;;;;5033658;28;20073;-49
2021/10/20 11:54:46;;;;;;;2.30;1.90;;;16.00;99.90;;;;;;5032451;28;20025;-50
2021/10/20 11:57:16;;;;;;;3.80;2.75;;;16.00;99.90;;;;;;5033639;28;20022;-46
2021/10/20 11:59:42;;;;;;;2.83;2.10;;;16.10;99.90;;;;;;5033627;28;20030;-47
2021/10/20 12:02:09;;;;;;;3.53;2.60;;;16.10;99.90;;;;;;5033421;28;20488;-48
2021/10/20 12:04:38;;;;;;;3.03;2.65;;;16.20;99.90;;;;;;5033516;28;20028;-50
2021/10/20 12:07:04;;;;;;;3.95;2.55;;;16.30;99.90;;;;;;5033334;28;20042;-51
2021/10/20 12:09:31;;;;;;;3.80;2.63;;;16.40;99.90;;;;;;5032107;28;20193;-47
2021/10/20 12:11:58;;;;;;;4.07;2.72;;;16.40;99.90;;;;;;5033294;28;20469;-47
2021/10/20 12:14:34;;;;;;;5.90;3.10;;;16.40;99.90;;;;;;5033541;28;20412;-49
2021/10/20 12:17:01;;;;;;;3.03;2.72;;;16.40;99.90;;;;;;5033257;28;20067;-48
2021/10/20 12:19:29;;;;;;;4.18;2.90;;;16.50;99.90;;;;;;5033242;28;20022;-48
2021/10/20 12:21:55;;;;;;;5.10;3.10;;;16.50;99.90;;;;;;5033270;28;20113;-52
2021/10/20 12:24:22;;;;;;;4.57;2.72;;;16.60;99.90;;;;;;5031843;28;20117;-49
2021/10/20 12:26:48;;;;;;;6.00;2.70;;;16.80;99.90;;;;;;5033157;28;20075;-50
2021/10/20 12:29:14;;;;;;;3.40;2.90;;;16.80;99.90;;;;;;5032906;28;20033;-48
2021/10/20 12:31:40;;;;;;;4.25;2.60;;;16.90;99.90;;;;;;5033060;28;20029;-45
2021/10/20 12:34:06;;;;;;;4.90;2.40;;;16.90;99.90;;;;;;5032956;28;20076;-50
2021/10/20 12:36:34;;;;;;;4.07;2.80;;;16.90;99.90;;;;;;5033064;28;20030;-50
2021/10/20 12:39:03;;;;;;;2.65;2.33;;;16.90;99.90;;;;;;5031715;28;20043;-51
2021/10/20 12:41:35;;;;;;;2.97;2.40;;;16.90;99.90;;;;;;5032889;28;20025;-46
2021/10/20 12:44:05;;;;;;;6.07;2.50;;;17.00;99.90;;;;;;5032931;28;20477;-50